sensor_id;sensor_type;location;lat;lon;timestamp;P1;durP1;ratioP1;P2;durP2;ratioP2
75700;SDS011;64321;48.796;44.740;2024-01-15T00:03:29;1.00;;;0.32;;
75700;SDS011;64321;48.796;44.740;2024-01-15T00:08:32;1.58;;;0.30;;
75700;SDS011;64321;48.796;44.740;2024-01-15T00:13:35;3.10;;;1.13;;
75700;SDS011;64321;48.796;44.740;2024-01-15T00:18:37;0.88;;;0.38;;
75700;SDS011;64321;48.796;44.740;2024-01-15T00:23:43;4.32;;;1.13;;
75700;SDS011;64321;48.796;44.740;2024-01-15T00:28:49;1.55;;;0.60;;
75700;SDS011;64321;48.796;44.740;2024-01-15T00:33:51;1.70;;;0.65;;
75700;SDS011;64321;48.796;44.740;2024-01-15T00:38:54;1.00;;;0.40;;
75700;SDS011;64321;48.796;44.740;2024-01-15T00:43:57;4.00;;;0.85;;
75700;SDS011;64321;48.796;44.740;2024-01-15T00:49:00;1.35;;;0.55;;
75700;SDS011;64321;48.796;44.740;2024-01-15T00:54:02;0.80;;;0.35;;
75700;SDS011;64321;48.796;44.740;2024-01-15T00:59:05;1.65;;;0.70;;
75700;SDS011;64321;48.796;44.740;2024-01-15T01:04:09;2.88;;;0.40;;
75700;SDS011;64321;48.796;44.740;2024-01-15T01:09:12;1.27;;;0.38;;
75700;SDS011;64321;48.796;44.740;2024-01-15T01:14:16;2.35;;;0.93;;
75700;SDS011;64321;48.796;44.740;2024-01-15T01:19:18;3.13;;;0.60;;
75700;SDS011;64321;48.796;44.740;2024-01-15T01:24:21;1.33;;;0.52;;
75700;SDS011;64321;48.796;44.740;2024-01-15T01:29:24;2.03;;;0.60;;
75700;SDS011;64321;48.796;44.740;2024-01-15T01:34:26;2.58;;;0.63;;
75700;SDS011;64321;48.796;44.740;2024-01-15T01:39:33;1.85;;;0.50;;
75700;SDS011;64321;48.796;44.740;2024-01-15T01:44:36;3.20;;;0.63;;
75700;SDS011;64321;48.796;44.740;2024-01-15T01:49:38;5.55;;;0.63;;
75700;SDS011;64321;48.796;44.740;2024-01-15T01:54:41;1.75;;;0.50;;
75700;SDS011;64321;48.796;44.740;2024-01-15T02:04:47;3.05;;;0.50;;
75700;SDS011;64321;48.796;44.740;2024-01-15T02:09:51;3.20;;;1.10;;
75700;SDS011;64321;48.796;44.740;2024-01-15T02:14:54;2.97;;;0.70;;
75700;SDS011;64321;48.796;44.740;2024-01-15T02:24:59;1.05;;;0.50;;
75700;SDS011;64321;48.796;44.740;2024-01-15T02:30:03;1.70;;;0.70;;
75700;SDS011;64321;48.796;44.740;2024-01-15T02:35:08;0.98;;;0.30;;
75700;SDS011;64321;48.796;44.740;2024-01-15T02:40:11;1.38;;;0.60;;
75700;SDS011;64321;48.796;44.740;2024-01-15T02:45:14;1.63;;;0.40;;
75700;SDS011;64321;48.796;44.740;2024-01-15T02:50:16;1.92;;;0.47;;
75700;SDS011;64321;48.796;44.740;2024-01-15T02:55:19;3.13;;;0.65;;
75700;SDS011;64321;48.796;44.740;2024-01-15T03:00:21;1.85;;;1.13;;
75700;SDS011;64321;48.796;44.740;2024-01-15T03:10:27;3.08;;;0.82;;
75700;SDS011;64321;48.796;44.740;2024-01-15T03:15:29;1.63;;;0.45;;
75700;SDS011;64321;48.796;44.740;2024-01-15T03:20:32;2.80;;;0.50;;
75700;SDS011;64321;48.796;44.740;2024-01-15T03:25:34;1.63;;;0.70;;
75700;SDS011;64321;48.796;44.740;2024-01-15T03:30:37;2.47;;;0.90;;
75700;SDS011;64321;48.796;44.740;2024-01-15T03:35:40;1.33;;;0.60;;
75700;SDS011;64321;48.796;44.740;2024-01-15T03:40:42;2.60;;;0.80;;
75700;SDS011;64321;48.796;44.740;2024-01-15T03:45:45;1.63;;;0.75;;
75700;SDS011;64321;48.796;44.740;2024-01-15T03:55:50;2.42;;;0.50;;
75700;SDS011;64321;48.796;44.740;2024-01-15T04:00:53;3.25;;;0.68;;
75700;SDS011;64321;48.796;44.740;2024-01-15T04:05:55;2.97;;;0.80;;
75700;SDS011;64321;48.796;44.740;2024-01-15T04:10:59;2.28;;;0.65;;
75700;SDS011;64321;48.796;44.740;2024-01-15T04:16:03;1.52;;;0.35;;
75700;SDS011;64321;48.796;44.740;2024-01-15T04:21:06;1.20;;;0.43;;
75700;SDS011;64321;48.796;44.740;2024-01-15T04:31:31;3.40;;;0.80;;
75700;SDS011;64321;48.796;44.740;2024-01-15T04:36:38;1.08;;;0.60;;
75700;SDS011;64321;48.796;44.740;2024-01-15T04:41:42;0.90;;;0.55;;
75700;SDS011;64321;48.796;44.740;2024-01-15T04:46:44;1.63;;;0.63;;
75700;SDS011;64321;48.796;44.740;2024-01-15T04:56:49;6.22;;;0.85;;
75700;SDS011;64321;48.796;44.740;2024-01-15T05:01:52;2.40;;;0.85;;
75700;SDS011;64321;48.796;44.740;2024-01-15T05:06:55;3.28;;;0.70;;
75700;SDS011;64321;48.796;44.740;2024-01-15T05:11:57;2.45;;;1.27;;
75700;SDS011;64321;48.796;44.740;2024-01-15T05:17:00;2.22;;;0.73;;
75700;SDS011;64321;48.796;44.740;2024-01-15T05:22:03;4.50;;;0.60;;
75700;SDS011;64321;48.796;44.740;2024-01-15T05:27:05;2.00;;;0.60;;
75700;SDS011;64321;48.796;44.740;2024-01-15T05:32:08;2.10;;;0.40;;
75700;SDS011;64321;48.796;44.740;2024-01-15T05:37:11;2.00;;;0.65;;
75700;SDS011;64321;48.796;44.740;2024-01-15T05:42:14;2.85;;;0.70;;
75700;SDS011;64321;48.796;44.740;2024-01-15T05:47:17;1.33;;;0.50;;
75700;SDS011;64321;48.796;44.740;2024-01-15T05:52:20;1.73;;;0.47;;
75700;SDS011;64321;48.796;44.740;2024-01-15T05:57:23;1.98;;;0.57;;
75700;SDS011;64321;48.796;44.740;2024-01-15T06:02:26;2.53;;;0.52;;
75700;SDS011;64321;48.796;44.740;2024-01-15T06:07:29;4.85;;;0.75;;
75700;SDS011;64321;48.796;44.740;2024-01-15T06:12:31;2.28;;;0.77;;
75700;SDS011;64321;48.796;44.740;2024-01-15T06:17:35;1.17;;;0.55;;
75700;SDS011;64321;48.796;44.740;2024-01-15T06:22:39;2.10;;;0.60;;
75700;SDS011;64321;48.796;44.740;2024-01-15T06:27:42;2.38;;;1.52;;
75700;SDS011;64321;48.796;44.740;2024-01-15T06:32:45;2.88;;;0.70;;
75700;SDS011;64321;48.796;44.740;2024-01-15T06:37:47;3.28;;;1.08;;
75700;SDS011;64321;48.796;44.740;2024-01-15T06:42:50;4.72;;;1.05;;
75700;SDS011;64321;48.796;44.740;2024-01-15T06:47:52;1.20;;;0.32;;
75700;SDS011;64321;48.796;44.740;2024-01-15T06:52:55;1.38;;;0.60;;
75700;SDS011;64321;48.796;44.740;2024-01-15T06:57:58;1.17;;;0.50;;
75700;SDS011;64321;48.796;44.740;2024-01-15T07:03:00;1.15;;;0.40;;
75700;SDS011;64321;48.796;44.740;2024-01-15T07:08:03;2.67;;;1.67;;
75700;SDS011;64321;48.796;44.740;2024-01-15T07:13:06;2.10;;;0.63;;
75700;SDS011;64321;48.796;44.740;2024-01-15T07:18:09;2.67;;;1.73;;
75700;SDS011;64321;48.796;44.740;2024-01-15T07:23:11;1.88;;;0.77;;
75700;SDS011;64321;48.796;44.740;2024-01-15T07:28:14;2.22;;;0.57;;
75700;SDS011;64321;48.796;44.740;2024-01-15T07:33:17;2.15;;;0.50;;
75700;SDS011;64321;48.796;44.740;2024-01-15T07:38:20;2.80;;;0.70;;
75700;SDS011;64321;48.796;44.740;2024-01-15T07:43:23;3.38;;;1.05;;
75700;SDS011;64321;48.796;44.740;2024-01-15T07:48:27;2.42;;;0.60;;
75700;SDS011;64321;48.796;44.740;2024-01-15T07:53:30;1.20;;;0.45;;
75700;SDS011;64321;48.796;44.740;2024-01-15T07:58:32;1.45;;;0.65;;
75700;SDS011;64321;48.796;44.740;2024-01-15T08:03:35;1.67;;;0.57;;
75700;SDS011;64321;48.796;44.740;2024-01-15T08:08:37;2.67;;;0.80;;
75700;SDS011;64321;48.796;44.740;2024-01-15T08:13:40;1.55;;;0.65;;
75700;SDS011;64321;48.796;44.740;2024-01-15T08:18:43;1.05;;;0.70;;
75700;SDS011;64321;48.796;44.740;2024-01-15T08:23:46;0.68;;;0.45;;
75700;SDS011;64321;48.796;44.740;2024-01-15T08:28:49;1.58;;;0.63;;
75700;SDS011;64321;48.796;44.740;2024-01-15T08:33:51;2.47;;;0.70;;
75700;SDS011;64321;48.796;44.740;2024-01-15T08:38:54;2.35;;;1.77;;
75700;SDS011;64321;48.796;44.740;2024-01-15T08:43:57;1.98;;;0.63;;
75700;SDS011;64321;48.796;44.740;2024-01-15T08:49:00;1.58;;;0.50;;
75700;SDS011;64321;48.796;44.740;2024-01-15T08:54:02;1.85;;;0.55;;
75700;SDS011;64321;48.796;44.740;2024-01-15T08:59:05;1.30;;;0.70;;
75700;SDS011;64321;48.796;44.740;2024-01-15T09:04:08;6.20;;;1.25;;
75700;SDS011;64321;48.796;44.740;2024-01-15T09:09:11;5.45;;;1.38;;
75700;SDS011;64321;48.796;44.740;2024-01-15T09:14:14;2.35;;;0.50;;
75700;SDS011;64321;48.796;44.740;2024-01-15T09:19:19;2.00;;;0.63;;
75700;SDS011;64321;48.796;44.740;2024-01-15T09:24:22;1.25;;;0.50;;
75700;SDS011;64321;48.796;44.740;2024-01-15T09:29:29;1.13;;;0.50;;
75700;SDS011;64321;48.796;44.740;2024-01-15T09:34:32;1.42;;;0.60;;
75700;SDS011;64321;48.796;44.740;2024-01-15T09:39:35;3.60;;;0.70;;
75700;SDS011;64321;48.796;44.740;2024-01-15T09:44:38;1.10;;;0.47;;
75700;SDS011;64321;48.796;44.740;2024-01-15T09:49:40;1.63;;;0.50;;
75700;SDS011;64321;48.796;44.740;2024-01-15T09:54:43;1.35;;;0.50;;
75700;SDS011;64321;48.796;44.740;2024-01-15T09:59:50;1.92;;;0.70;;
75700;SDS011;64321;48.796;44.740;2024-01-15T10:04:55;2.55;;;0.82;;
75700;SDS011;64321;48.796;44.740;2024-01-15T10:09:58;1.20;;;0.43;;
75700;SDS011;64321;48.796;44.740;2024-01-15T10:15:01;1.83;;;0.55;;
75700;SDS011;64321;48.796;44.740;2024-01-15T10:20:08;2.25;;;0.82;;
75700;SDS011;64321;48.796;44.740;2024-01-15T10:25:12;4.82;;;0.90;;
75700;SDS011;64321;48.796;44.740;2024-01-15T10:30:15;1.92;;;0.70;;
75700;SDS011;64321;48.796;44.740;2024-01-15T10:35:20;2.42;;;0.68;;
75700;SDS011;64321;48.796;44.740;2024-01-15T10:40:23;4.28;;;0.88;;
75700;SDS011;64321;48.796;44.740;2024-01-15T10:45:26;3.40;;;0.57;;
75700;SDS011;64321;48.796;44.740;2024-01-15T10:50:29;1.30;;;0.55;;
75700;SDS011;64321;48.796;44.740;2024-01-15T10:55:32;2.10;;;0.82;;
75700;SDS011;64321;48.796;44.740;2024-01-15T11:00:37;1.50;;;1.17;;
75700;SDS011;64321;48.796;44.740;2024-01-15T11:05:44;2.45;;;0.70;;
75700;SDS011;64321;48.796;44.740;2024-01-15T11:10:48;5.00;;;2.15;;
75700;SDS011;64321;48.796;44.740;2024-01-15T11:16:04;6.80;;;3.17;;
75700;SDS011;64321;48.796;44.740;2024-01-15T11:41:51;3.88;;;0.80;;
75700;SDS011;64321;48.796;44.740;2024-01-15T11:52:06;3.17;;;1.92;;
75700;SDS011;64321;48.796;44.740;2024-01-15T11:57:15;6.03;;;1.98;;
75700;SDS011;64321;48.796;44.740;2024-01-15T12:02:23;2.22;;;0.75;;
75700;SDS011;64321;48.796;44.740;2024-01-15T12:07:26;1.20;;;0.52;;
75700;SDS011;64321;48.796;44.740;2024-01-15T12:12:35;4.50;;;1.77;;
75700;SDS011;64321;48.796;44.740;2024-01-15T12:17:54;2.20;;;1.42;;
75700;SDS011;64321;48.796;44.740;2024-01-15T12:28:09;2.17;;;0.77;;
75700;SDS011;64321;48.796;44.740;2024-01-15T12:33:12;2.38;;;0.85;;
75700;SDS011;64321;48.796;44.740;2024-01-15T12:38:15;4.32;;;1.33;;
75700;SDS011;64321;48.796;44.740;2024-01-15T12:43:20;3.15;;;1.58;;
75700;SDS011;64321;48.796;44.740;2024-01-15T12:48:23;5.40;;;2.92;;
75700;SDS011;64321;48.796;44.740;2024-01-15T12:53:26;7.07;;;2.15;;
75700;SDS011;64321;48.796;44.740;2024-01-15T12:58:28;6.50;;;2.13;;
75700;SDS011;64321;48.796;44.740;2024-01-15T13:03:31;8.05;;;4.28;;
75700;SDS011;64321;48.796;44.740;2024-01-15T13:08:33;4.93;;;1.52;;
75700;SDS011;64321;48.796;44.740;2024-01-15T13:13:36;4.45;;;1.65;;
75700;SDS011;64321;48.796;44.740;2024-01-15T13:18:39;3.40;;;1.55;;
75700;SDS011;64321;48.796;44.740;2024-01-15T13:23:43;4.40;;;2.47;;
75700;SDS011;64321;48.796;44.740;2024-01-15T13:28:46;5.40;;;1.58;;
75700;SDS011;64321;48.796;44.740;2024-01-15T13:33:48;6.03;;;2.08;;
75700;SDS011;64321;48.796;44.740;2024-01-15T13:38:51;4.00;;;1.05;;
75700;SDS011;64321;48.796;44.740;2024-01-15T13:43:57;4.32;;;1.40;;
75700;SDS011;64321;48.796;44.740;2024-01-15T13:49:00;3.08;;;1.40;;
75700;SDS011;64321;48.796;44.740;2024-01-15T13:54:04;2.40;;;0.95;;
75700;SDS011;64321;48.796;44.740;2024-01-15T13:59:06;5.68;;;1.70;;
75700;SDS011;64321;48.796;44.740;2024-01-15T14:04:09;6.00;;;2.53;;
75700;SDS011;64321;48.796;44.740;2024-01-15T14:09:12;2.97;;;1.35;;
75700;SDS011;64321;48.796;44.740;2024-01-15T14:14:16;6.78;;;1.83;;
75700;SDS011;64321;48.796;44.740;2024-01-15T14:19:19;5.32;;;1.92;;
75700;SDS011;64321;48.796;44.740;2024-01-15T14:24:23;7.13;;;2.20;;
75700;SDS011;64321;48.796;44.740;2024-01-15T14:29:26;3.38;;;1.25;;
75700;SDS011;64321;48.796;44.740;2024-01-15T14:34:29;3.13;;;1.52;;
75700;SDS011;64321;48.796;44.740;2024-01-15T14:39:32;2.15;;;0.95;;
75700;SDS011;64321;48.796;44.740;2024-01-15T14:44:36;10.57;;;1.45;;
75700;SDS011;64321;48.796;44.740;2024-01-15T14:49:40;3.35;;;1.58;;
75700;SDS011;64321;48.796;44.740;2024-01-15T14:54:43;3.80;;;1.40;;
75700;SDS011;64321;48.796;44.740;2024-01-15T14:59:45;4.68;;;2.05;;
75700;SDS011;64321;48.796;44.740;2024-01-15T15:04:48;4.32;;;1.73;;
75700;SDS011;64321;48.796;44.740;2024-01-15T15:09:51;4.47;;;1.52;;
75700;SDS011;64321;48.796;44.740;2024-01-15T15:14:53;4.25;;;1.88;;
75700;SDS011;64321;48.796;44.740;2024-01-15T15:20:09;4.07;;;1.50;;
75700;SDS011;64321;48.796;44.740;2024-01-15T15:25:12;4.60;;;1.80;;
75700;SDS011;64321;48.796;44.740;2024-01-15T15:30:15;3.67;;;1.20;;
75700;SDS011;64321;48.796;44.740;2024-01-15T15:35:18;4.88;;;2.35;;
75700;SDS011;64321;48.796;44.740;2024-01-15T15:40:21;6.55;;;2.47;;
75700;SDS011;64321;48.796;44.740;2024-01-15T15:45:24;6.03;;;2.67;;
75700;SDS011;64321;48.796;44.740;2024-01-15T15:50:27;4.47;;;2.15;;
75700;SDS011;64321;48.796;44.740;2024-01-15T15:55:35;7.10;;;2.65;;
75700;SDS011;64321;48.796;44.740;2024-01-15T16:00:41;6.30;;;2.28;;
75700;SDS011;64321;48.796;44.740;2024-01-15T16:05:44;6.75;;;2.17;;
75700;SDS011;64321;48.796;44.740;2024-01-15T16:10:54;4.38;;;1.63;;
75700;SDS011;64321;48.796;44.740;2024-01-15T16:15:57;6.10;;;1.90;;
75700;SDS011;64321;48.796;44.740;2024-01-15T16:21:20;5.68;;;1.50;;
75700;SDS011;64321;48.796;44.740;2024-01-15T16:26:42;8.75;;;3.05;;
75700;SDS011;64321;48.796;44.740;2024-01-15T16:31:46;4.55;;;1.75;;
75700;SDS011;64321;48.796;44.740;2024-01-15T16:36:48;3.67;;;1.45;;
75700;SDS011;64321;48.796;44.740;2024-01-15T16:41:51;5.15;;;2.13;;
75700;SDS011;64321;48.796;44.740;2024-01-15T16:46:54;7.30;;;3.42;;
75700;SDS011;64321;48.796;44.740;2024-01-15T16:52:06;6.00;;;2.28;;
75700;SDS011;64321;48.796;44.740;2024-01-15T16:57:09;7.45;;;2.55;;
75700;SDS011;64321;48.796;44.740;2024-01-15T17:02:12;4.53;;;1.75;;
75700;SDS011;64321;48.796;44.740;2024-01-15T17:07:15;6.47;;;2.60;;
75700;SDS011;64321;48.796;44.740;2024-01-15T17:12:18;5.55;;;2.70;;
75700;SDS011;64321;48.796;44.740;2024-01-15T17:17:22;5.85;;;2.83;;
75700;SDS011;64321;48.796;44.740;2024-01-15T17:22:25;6.63;;;3.15;;
75700;SDS011;64321;48.796;44.740;2024-01-15T17:27:28;7.30;;;2.85;;
75700;SDS011;64321;48.796;44.740;2024-01-15T17:32:31;5.78;;;2.35;;
75700;SDS011;64321;48.796;44.740;2024-01-15T17:37:33;9.48;;;3.70;;
75700;SDS011;64321;48.796;44.740;2024-01-15T17:42:38;5.60;;;2.15;;
75700;SDS011;64321;48.796;44.740;2024-01-15T17:47:41;9.02;;;3.28;;
75700;SDS011;64321;48.796;44.740;2024-01-15T17:52:44;8.15;;;2.90;;
75700;SDS011;64321;48.796;44.740;2024-01-15T17:57:46;7.78;;;3.05;;
75700;SDS011;64321;48.796;44.740;2024-01-15T18:02:49;6.30;;;2.78;;
75700;SDS011;64321;48.796;44.740;2024-01-15T18:07:55;7.95;;;2.85;;
75700;SDS011;64321;48.796;44.740;2024-01-15T18:12:58;7.45;;;2.95;;
75700;SDS011;64321;48.796;44.740;2024-01-15T18:18:02;9.00;;;3.00;;
75700;SDS011;64321;48.796;44.740;2024-01-15T18:23:05;8.70;;;3.13;;
75700;SDS011;64321;48.796;44.740;2024-01-15T18:28:07;9.23;;;3.28;;
75700;SDS011;64321;48.796;44.740;2024-01-15T18:33:10;9.35;;;3.72;;
75700;SDS011;64321;48.796;44.740;2024-01-15T18:38:14;8.50;;;3.35;;
75700;SDS011;64321;48.796;44.740;2024-01-15T18:43:17;9.48;;;4.28;;
75700;SDS011;64321;48.796;44.740;2024-01-15T18:48:21;9.57;;;4.00;;
75700;SDS011;64321;48.796;44.740;2024-01-15T18:53:24;7.97;;;3.35;;
75700;SDS011;64321;48.796;44.740;2024-01-15T18:58:27;9.60;;;3.60;;
75700;SDS011;64321;48.796;44.740;2024-01-15T19:03:29;6.78;;;3.65;;
75700;SDS011;64321;48.796;44.740;2024-01-15T19:08:32;9.30;;;2.88;;
75700;SDS011;64321;48.796;44.740;2024-01-15T19:13:35;7.57;;;3.25;;
75700;SDS011;64321;48.796;44.740;2024-01-15T19:18:39;9.52;;;3.55;;
75700;SDS011;64321;48.796;44.740;2024-01-15T19:23:42;8.93;;;3.25;;
75700;SDS011;64321;48.796;44.740;2024-01-15T19:28:44;7.47;;;3.00;;
75700;SDS011;64321;48.796;44.740;2024-01-15T19:33:48;8.32;;;3.17;;
75700;SDS011;64321;48.796;44.740;2024-01-15T19:38:51;7.72;;;2.80;;
75700;SDS011;64321;48.796;44.740;2024-01-15T19:43:54;6.90;;;2.50;;
75700;SDS011;64321;48.796;44.740;2024-01-15T19:48:57;7.90;;;3.20;;
75700;SDS011;64321;48.796;44.740;2024-01-15T19:54:00;5.85;;;2.55;;
75700;SDS011;64321;48.796;44.740;2024-01-15T19:59:03;8.48;;;3.00;;
75700;SDS011;64321;48.796;44.740;2024-01-15T20:04:06;6.85;;;3.45;;
75700;SDS011;64321;48.796;44.740;2024-01-15T20:09:08;6.63;;;2.45;;
75700;SDS011;64321;48.796;44.740;2024-01-15T20:14:11;8.63;;;2.70;;
75700;SDS011;64321;48.796;44.740;2024-01-15T20:19:14;6.50;;;2.60;;
75700;SDS011;64321;48.796;44.740;2024-01-15T20:24:17;7.72;;;2.92;;
75700;SDS011;64321;48.796;44.740;2024-01-15T20:29:21;9.98;;;3.33;;
75700;SDS011;64321;48.796;44.740;2024-01-15T20:34:24;6.90;;;3.00;;
75700;SDS011;64321;48.796;44.740;2024-01-15T20:39:27;7.57;;;2.88;;
75700;SDS011;64321;48.796;44.740;2024-01-15T20:44:29;5.22;;;2.25;;
75700;SDS011;64321;48.796;44.740;2024-01-15T20:49:32;7.72;;;2.72;;
75700;SDS011;64321;48.796;44.740;2024-01-15T20:54:34;6.97;;;2.50;;
75700;SDS011;64321;48.796;44.740;2024-01-15T20:59:37;8.02;;;2.53;;
75700;SDS011;64321;48.796;44.740;2024-01-15T21:04:40;5.50;;;1.75;;
75700;SDS011;64321;48.796;44.740;2024-01-15T21:09:42;4.93;;;2.05;;
75700;SDS011;64321;48.796;44.740;2024-01-15T21:14:45;4.65;;;1.98;;
75700;SDS011;64321;48.796;44.740;2024-01-15T21:19:48;5.60;;;2.50;;
75700;SDS011;64321;48.796;44.740;2024-01-15T21:24:51;4.90;;;2.05;;
75700;SDS011;64321;48.796;44.740;2024-01-15T21:29:53;5.40;;;2.38;;
75700;SDS011;64321;48.796;44.740;2024-01-15T21:34:56;5.53;;;2.00;;
75700;SDS011;64321;48.796;44.740;2024-01-15T21:39:58;6.70;;;2.78;;
75700;SDS011;64321;48.796;44.740;2024-01-15T21:45:01;5.13;;;2.63;;
75700;SDS011;64321;48.796;44.740;2024-01-15T21:50:05;3.35;;;1.25;;
75700;SDS011;64321;48.796;44.740;2024-01-15T21:55:11;7.20;;;2.38;;
75700;SDS011;64321;48.796;44.740;2024-01-15T22:00:14;5.53;;;1.92;;
75700;SDS011;64321;48.796;44.740;2024-01-15T22:05:17;5.93;;;2.35;;
75700;SDS011;64321;48.796;44.740;2024-01-15T22:10:20;5.38;;;1.85;;
75700;SDS011;64321;48.796;44.740;2024-01-15T22:15:23;5.82;;;2.55;;
75700;SDS011;64321;48.796;44.740;2024-01-15T22:20:25;7.63;;;3.25;;
75700;SDS011;64321;48.796;44.740;2024-01-15T22:25:28;8.25;;;2.78;;
75700;SDS011;64321;48.796;44.740;2024-01-15T22:30:30;8.95;;;3.80;;
75700;SDS011;64321;48.796;44.740;2024-01-15T22:35:33;8.30;;;3.40;;
75700;SDS011;64321;48.796;44.740;2024-01-15T22:40:36;7.13;;;3.28;;
75700;SDS011;64321;48.796;44.740;2024-01-15T22:45:38;10.40;;;3.47;;
75700;SDS011;64321;48.796;44.740;2024-01-15T22:50:41;8.70;;;3.20;;
75700;SDS011;64321;48.796;44.740;2024-01-15T22:55:44;7.63;;;3.13;;
75700;SDS011;64321;48.796;44.740;2024-01-15T23:00:47;6.05;;;2.40;;
75700;SDS011;64321;48.796;44.740;2024-01-15T23:05:51;7.22;;;4.53;;
75700;SDS011;64321;48.796;44.740;2024-01-15T23:10:53;5.25;;;2.25;;
75700;SDS011;64321;48.796;44.740;2024-01-15T23:15:56;6.47;;;2.38;;
75700;SDS011;64321;48.796;44.740;2024-01-15T23:20:59;6.03;;;2.00;;
75700;SDS011;64321;48.796;44.740;2024-01-15T23:26:02;6.80;;;2.55;;
75700;SDS011;64321;48.796;44.740;2024-01-15T23:36:27;8.48;;;3.13;;
75700;SDS011;64321;48.796;44.740;2024-01-15T23:41:29;6.55;;;3.08;;
75700;SDS011;64321;48.796;44.740;2024-01-15T23:46:32;5.30;;;2.97;;
75700;SDS011;64321;48.796;44.740;2024-01-15T23:51:35;4.85;;;2.58;;
75700;SDS011;64321;48.796;44.740;2024-01-15T23:56:37;6.05;;;2.63;;
